Time;durP1;ratioP1;P1;durP2;ratioP2;P2;SDS_P1;SDS_P2;PMS_P1;PMS_P2;Temp;Humidity;BMP_temperature;BMP_pressure;BME280_temperature;BME280_humidity;BME280_pressure;Samples;Min_cycle;Max_cycle;Signal;HPM_P1;HPM_P2
2022/12/11 00:01:49;;;;;;;38.13;17.70;;;0.00;99.90;;;;;;5070949;28;20673;-81
2022/12/11 00:04:16;;;;;;;37.30;20.60;;;-0.10;99.90;;;;;;5072963;28;20301;-80
2022/12/11 00:06:43;;;;;;;40.27;21.77;;;0.00;99.90;;;;;;5063886;28;20227;-81
2022/12/11 00:09:10;;;;;;;40.57;21.57;;;0.10;99.90;;;;;;5054797;28;20209;-81
2022/12/11 00:11:38;;;;;;;42.63;22.10;;;0.10;99.90;;;;;;5055389;28;20508;-81
2022/12/11 00:14:05;;;;;;;40.83;21.27;;;0.00;99.90;;;;;;5053851;28;20674;-81
2022/12/11 00:16:32;;;;;;;41.57;21.63;;;-0.10;99.90;;;;;;5055228;28;20287;-80
2022/12/11 00:18:59;;;;;;;39.50;20.60;;;-0.10;99.90;;;;;;5054637;28;20575;-81
2022/12/11 00:21:25;;;;;;;37.80;19.97;;;0.00;99.90;;;;;;5064840;28;20217;-80
2022/12/11 00:23:52;;;;;;;33.53;17.90;;;0.00;99.90;;;;;;5054951;28;20213;-80
2022/12/11 00:26:19;;;;;;;39.40;20.90;;;0.00;99.90;;;;;;5054538;28;20234;-80
2022/12/11 00:28:48;;;;;;;34.87;19.10;;;-0.10;99.90;;;;;;5054520;28;20209;-81
2022/12/11 00:31:17;;;;;;;37.13;20.00;;;-0.10;99.90;;;;;;5055065;28;20199;-80
2022/12/11 00:33:44;;;;;;;38.47;21.77;;;-0.10;99.90;;;;;;5054838;28;20308;-81
2022/12/11 00:36:13;;;;;;;36.27;19.77;;;-0.10;99.90;;;;;;5053494;28;20658;-81
2022/12/11 00:38:40;;;;;;;36.30;20.57;;;0.00;99.90;;;;;;5068509;28;20213;-81
2022/12/11 00:41:07;;;;;;;37.73;17.43;;;0.00;99.90;;;;;;5071753;28;20335;-81
2022/12/11 00:43:33;;;;;;;40.20;20.10;;;0.10;99.90;;;;;;5073219;28;20202;-81
2022/12/11 00:46:02;;;;;;;37.57;20.97;;;0.10;99.90;;;;;;5060064;28;20214;-81
2022/12/11 00:48:29;;;;;;;38.43;19.97;;;0.10;99.90;;;;;;5063916;28;20198;-81
2022/12/11 00:50:55;;;;;;;36.43;20.67;;;0.10;99.90;;;;;;5061766;28;20209;-81
2022/12/11 00:53:22;;;;;;;37.40;20.97;;;0.10;99.90;;;;;;5066437;28;20195;-80
2022/12/11 00:55:49;;;;;;;37.83;20.70;;;0.10;99.90;;;;;;5073236;28;20213;-80
2022/12/11 00:58:16;;;;;;;37.40;21.23;;;0.10;99.90;;;;;;5055532;28;20891;-80
2022/12/11 01:00:43;;;;;;;34.50;18.17;;;0.10;99.90;;;;;;5057796;28;20576;-81
2022/12/11 01:03:14;;;;;;;37.83;21.00;;;0.10;99.90;;;;;;5057504;28;20668;-81
2022/12/11 01:05:41;;;;;;;39.60;20.90;;;0.10;99.90;;;;;;5062306;28;20293;-81
2022/12/11 01:08:08;;;;;;;37.93;19.40;;;0.10;99.90;;;;;;5069373;28;20222;-81
2022/12/11 01:10:35;;;;;;;37.07;21.33;;;0.20;99.90;;;;;;5063621;28;20205;-81
2022/12/11 01:13:03;;;;;;;39.43;20.00;;;0.20;99.90;;;;;;5053528;28;20683;-81
2022/12/11 01:15:32;;;;;;;34.83;17.87;;;0.20;99.90;;;;;;5054682;28;20203;-81
2022/12/11 01:17:59;;;;;;;37.83;18.87;;;0.10;99.90;;;;;;5054139;28;20219;-81
2022/12/11 01:20:28;;;;;;;36.63;19.73;;;0.10;99.90;;;;;;5076674;28;20193;-81
2022/12/11 01:22:56;;;;;;;35.87;20.23;;;0.20;99.90;;;;;;5093950;28;20251;-81
2022/12/11 01:25:23;;;;;;;39.23;21.43;;;0.10;99.90;;;;;;5078339;28;20214;-80
2022/12/11 01:27:51;;;;;;;36.53;18.03;;;0.10;99.90;;;;;;5074267;28;20222;-81
2022/12/11 01:30:19;;;;;;;37.00;18.10;;;0.00;99.90;;;;;;5071247;28;20205;-81
2022/12/11 01:32:46;;;;;;;35.47;19.70;;;0.00;99.90;;;;;;5053012;28;20240;-80
2022/12/11 01:35:14;;;;;;;37.93;19.07;;;0.00;99.90;;;;;;5054045;28;20206;-80
2022/12/11 01:37:42;;;;;;;38.97;21.23;;;0.00;99.90;;;;;;5052900;28;20223;-81
2022/12/11 01:40:11;;;;;;;39.33;22.10;;;0.00;99.90;;;;;;5053722;28;20215;-81
2022/12/11 01:42:38;;;;;;;38.43;22.30;;;0.00;99.90;;;;;;5053218;28;20214;-81
2022/12/11 01:45:26;;;;;;;37.73;20.57;;;0.00;99.90;;;;;;5054020;28;20217;-80
2022/12/11 01:47:57;;;;;;;34.97;20.10;;;0.00;99.90;;;;;;5053900;28;20605;-80
2022/12/11 01:50:25;;;;;;;37.93;21.70;;;0.10;99.90;;;;;;5054226;28;20577;-81
2022/12/11 01:52:53;;;;;;;38.13;20.73;;;0.10;99.90;;;;;;5052307;28;20207;-81
2022/12/11 01:55:21;;;;;;;36.27;20.07;;;0.00;99.90;;;;;;5053950;28;20211;-80
2022/12/11 01:57:50;;;;;;;36.13;20.60;;;0.00;99.90;;;;;;5053196;28;20229;-81
2022/12/11 02:00:17;;;;;;;37.83;21.67;;;0.00;99.90;;;;;;5088080;28;20204;-80
2022/12/11 02:02:44;;;;;;;37.13;21.87;;;0.00;99.90;;;;;;5066169;28;20201;-81
2022/12/11 02:05:11;;;;;;;37.40;20.73;;;0.00;99.90;;;;;;5072271;28;20214;-81
2022/12/11 02:07:42;;;;;;;39.07;21.80;;;0.00;99.90;;;;;;5061399;28;20230;-81
2022/12/11 02:10:12;;;;;;;37.47;21.07;;;0.00;99.90;;;;;;5072019;28;20198;-80
2022/12/11 02:12:49;;;;;;;38.03;21.40;;;-0.10;99.90;;;;;;5072720;28;20210;-80
2022/12/11 02:15:23;;;;;;;41.93;20.83;;;0.00;99.90;;;;;;5062377;28;20198;-80
2022/12/11 02:17:59;;;;;;;38.20;22.47;;;0.00;99.90;;;;;;5065187;28;20210;-80
2022/12/11 02:20:31;;;;;;;40.13;21.47;;;0.00;99.90;;;;;;5062890;28;20213;-81
2022/12/11 02:23:32;;;;;;;37.00;22.37;;;0.00;99.90;;;;;;5069355;28;20285;-80
2022/12/11 02:26:18;;;;;;;40.03;21.90;;;0.00;99.90;;;;;;5053438;28;20206;-81
2022/12/11 02:28:50;;;;;;;37.83;21.33;;;0.00;99.90;;;;;;5053130;28;20227;-80
2022/12/11 02:31:24;;;;;;;40.60;21.80;;;0.00;99.90;;;;;;5053756;28;20210;-81
2022/12/11 02:33:55;;;;;;;39.27;21.77;;;0.00;99.90;;;;;;5052616;28;20203;-81
2022/12/11 02:36:25;;;;;;;39.43;19.37;;;-0.10;99.90;;;;;;5070237;28;20226;-81
2022/12/11 02:38:54;;;;;;;35.80;20.13;;;-0.10;99.90;;;;;;5072288;28;20209;-80
2022/12/11 02:41:23;;;;;;;37.13;21.30;;;-0.10;99.90;;;;;;5067685;28;20278;-81
2022/12/11 02:43:51;;;;;;;37.87;21.80;;;0.00;99.90;;;;;;5054313;28;20618;-81
2022/12/11 02:46:20;;;;;;;37.43;21.13;;;-0.10;99.90;;;;;;5057210;28;20578;-80
2022/12/11 02:48:50;;;;;;;39.83;22.57;;;0.00;99.90;;;;;;5054938;28;20227;-81
2022/12/11 02:51:21;;;;;;;41.30;22.43;;;0.00;99.90;;;;;;5075014;28;20199;-81
2022/12/11 02:53:49;;;;;;;37.90;21.80;;;0.00;99.90;;;;;;5082406;28;20228;-81
2022/12/11 02:56:20;;;;;;;37.37;20.73;;;0.00;99.90;;;;;;5071358;28;20225;-80
2022/12/11 02:58:55;;;;;;;40.13;21.47;;;0.00;99.90;;;;;;5073684;28;20202;-81
2022/12/11 03:01:22;;;;;;;40.30;21.57;;;0.00;99.90;;;;;;5085579;28;20204;-80
2022/12/11 03:03:49;;;;;;;34.93;18.97;;;-0.10;99.90;;;;;;5094654;28;20260;-81
2022/12/11 03:06:20;;;;;;;40.30;21.43;;;-0.10;99.90;;;;;;5065835;28;20221;-80
2022/12/11 03:08:46;;;;;;;39.67;21.93;;;-0.10;99.90;;;;;;5063965;28;20740;-80
2022/12/11 03:11:13;;;;;;;39.60;21.87;;;-0.10;99.90;;;;;;5056396;28;20213;-80
2022/12/11 03:13:41;;;;;;;41.30;19.30;;;-0.10;99.90;;;;;;5054662;28;20301;-79
2022/12/11 03:16:16;;;;;;;41.03;22.57;;;-0.10;99.90;;;;;;5055327;28;20217;-79
2022/12/11 03:18:52;;;;;;;39.70;20.83;;;-0.20;99.90;;;;;;5063488;28;20569;-79
2022/12/11 03:21:27;;;;;;;41.67;20.93;;;-0.20;99.90;;;;;;5055777;28;20220;-79
2022/12/11 03:23:58;;;;;;;37.57;21.60;;;-0.20;99.90;;;;;;5055463;28;20206;-79
2022/12/11 03:26:25;;;;;;;37.63;20.07;;;-0.20;99.90;;;;;;5062749;28;20223;-79
2022/12/11 03:28:58;;;;;;;35.03;19.27;;;-0.20;99.90;;;;;;5065253;28;20225;-79
2022/12/11 03:31:31;;;;;;;37.40;20.93;;;-0.30;99.90;;;;;;5055224;28;20199;-78
2022/12/11 03:34:02;;;;;;;35.80;20.50;;;-0.20;99.90;;;;;;5064735;28;20199;-79
2022/12/11 03:36:33;;;;;;;35.97;20.00;;;-0.30;99.90;;;;;;5059507;28;20223;-79
2022/12/11 03:39:02;;;;;;;39.00;21.60;;;-0.30;99.90;;;;;;5069533;28;20665;-79
2022/12/11 03:41:33;;;;;;;39.97;21.30;;;-0.30;99.90;;;;;;5063085;28;20597;-80
2022/12/11 03:44:00;;;;;;;41.63;22.37;;;-0.30;99.90;;;;;;5052884;28;20215;-79
2022/12/11 03:46:32;;;;;;;40.40;21.53;;;-0.20;99.90;;;;;;5054520;28;20309;-79
2022/12/11 03:49:01;;;;;;;42.63;22.03;;;-0.30;99.90;;;;;;5052949;28;20237;-79
2022/12/11 03:51:31;;;;;;;41.90;22.67;;;-0.30;99.90;;;;;;5053125;28;20203;-79
2022/12/11 03:53:59;;;;;;;37.80;22.73;;;-0.30;99.90;;;;;;5064038;28;20207;-79
2022/12/11 03:56:28;;;;;;;40.83;22.30;;;-0.30;99.90;;;;;;5072910;28;20218;-79
2022/12/11 03:58:55;;;;;;;40.87;21.37;;;-0.30;99.90;;;;;;5063965;28;20217;-79
2022/12/11 04:01:22;;;;;;;39.97;20.87;;;-0.30;99.90;;;;;;5054792;28;20628;-79
2022/12/11 04:03:50;;;;;;;39.70;22.17;;;-0.30;99.90;;;;;;5052709;28;20213;-79
2022/12/11 04:06:17;;;;;;;39.37;21.60;;;-0.30;99.90;;;;;;5067006;28;20226;-79
2022/12/11 04:08:43;;;;;;;38.00;20.33;;;-0.30;99.90;;;;;;5074389;28;20218;-79
2022/12/11 04:16:35;;;;;;;40.43;22.13;;;-0.40;99.90;;;;;;5074104;28;20218;-79
2022/12/11 04:24:33;;;;;;;39.03;22.33;;;-0.30;99.90;;;;;;5073748;28;20201;-79
2022/12/11 04:27:00;;;;;;;39.53;21.83;;;-0.30;99.90;;;;;;5073697;28;20226;-79
2022/12/11 04:29:26;;;;;;;39.40;21.90;;;-0.30;99.90;;;;;;5069415;28;20203;-79
2022/12/11 04:31:53;;;;;;;36.90;21.43;;;-0.40;99.90;;;;;;5053524;28;20203;-79
2022/12/11 04:34:22;;;;;;;41.20;23.40;;;-0.30;99.90;;;;;;5054071;28;20199;-79
2022/12/11 04:36:48;;;;;;;41.90;23.97;;;-0.30;99.90;;;;;;5053854;28;20645;-79
2022/12/11 04:39:15;;;;;;;36.67;20.90;;;-0.30;99.90;;;;;;5074575;28;20274;-79
2022/12/11 04:41:42;;;;;;;38.93;22.13;;;-0.30;99.90;;;;;;5058114;28;20304;-79
2022/12/11 04:44:09;;;;;;;40.83;21.97;;;-0.30;99.90;;;;;;5057810;28;20194;-79
2022/12/11 04:46:36;;;;;;;37.90;22.60;;;-0.30;99.90;;;;;;5057127;28;20224;-79
2022/12/11 04:49:03;;;;;;;40.77;22.43;;;-0.30;99.90;;;;;;5061061;28;20223;-79
2022/12/11 04:51:31;;;;;;;38.57;21.70;;;-0.30;99.90;;;;;;5052005;28;20576;-79
2022/12/11 04:53:58;;;;;;;40.67;22.63;;;-0.30;99.90;;;;;;5068643;28;20202;-79
2022/12/11 04:56:25;;;;;;;40.60;22.17;;;-0.30;99.90;;;;;;5057031;28;20230;-79
2022/12/11 04:58:52;;;;;;;40.13;23.17;;;-0.40;99.90;;;;;;5052900;28;20667;-79
2022/12/11 05:01:21;;;;;;;40.57;23.13;;;-0.40;99.90;;;;;;5055202;28;20229;-79
2022/12/11 05:03:48;;;;;;;37.30;21.30;;;-0.30;99.90;;;;;;5071166;28;20210;-79
2022/12/11 05:06:15;;;;;;;38.10;21.87;;;-0.30;99.90;;;;;;5070021;28;20218;-79
2022/12/11 05:08:44;;;;;;;41.10;22.90;;;-0.40;99.90;;;;;;5060908;28;20223;-79
2022/12/11 05:11:15;;;;;;;39.03;21.50;;;-0.40;99.90;;;;;;5053315;28;20257;-79
2022/12/11 05:13:43;;;;;;;38.57;21.57;;;-0.40;99.90;;;;;;5052102;28;20229;-79
2022/12/11 05:16:12;;;;;;;38.57;21.53;;;-0.30;99.90;;;;;;5060074;28;20215;-78
2022/12/11 05:18:39;;;;;;;41.13;22.53;;;-0.40;99.90;;;;;;5057545;28;20237;-78
2022/12/11 05:21:08;;;;;;;38.80;22.07;;;-0.40;99.90;;;;;;5062577;28;20607;-78
2022/12/11 05:23:35;;;;;;;37.53;21.37;;;-0.40;99.90;;;;;;5067832;28;20405;-78
2022/12/11 05:26:05;;;;;;;36.93;21.10;;;-0.40;99.90;;;;;;5063447;28;20203;-78
2022/12/11 05:28:35;;;;;;;38.23;20.90;;;-0.30;99.90;;;;;;5055917;28;20583;-79
2022/12/11 05:31:04;;;;;;;38.67;20.80;;;-0.30;99.90;;;;;;5065195;28;20203;-78
2022/12/11 05:33:31;;;;;;;39.53;21.23;;;-0.40;99.90;;;;;;5063263;28;20199;-79
2022/12/11 05:35:58;;;;;;;38.73;21.80;;;-0.30;99.90;;;;;;5069225;28;20205;-78
2022/12/11 05:38:25;;;;;;;38.77;21.60;;;-0.40;99.90;;;;;;5068663;28;20203;-78
2022/12/11 05:40:59;;;;;;;40.00;21.97;;;-0.40;99.90;;;;;;5069048;28;20298;-79
2022/12/11 05:43:29;;;;;;;36.97;21.20;;;-0.40;99.90;;;;;;5065649;28;20202;-78
2022/12/11 05:45:56;;;;;;;41.13;22.93;;;-0.40;99.90;;;;;;5061786;28;20228;-78
2022/12/11 05:48:23;;;;;;;38.97;20.73;;;-0.40;99.90;;;;;;5062931;28;20229;-79
2022/12/11 05:50:57;;;;;;;41.83;21.53;;;-0.50;99.90;;;;;;5054857;28;20209;-79
2022/12/11 05:53:25;;;;;;;39.07;21.87;;;-0.50;99.90;;;;;;5061541;28;20210;-79
2022/12/11 05:55:51;;;;;;;35.03;20.37;;;-0.50;99.90;;;;;;5057423;28;20218;-79
2022/12/11 05:58:18;;;;;;;37.07;21.40;;;-0.50;99.90;;;;;;5058861;28;20614;-78
2022/12/11 06:00:47;;;;;;;35.70;20.63;;;-0.60;99.90;;;;;;5057532;28;20210;-79
2022/12/11 06:03:14;;;;;;;37.13;21.53;;;-0.60;99.90;;;;;;5059825;28;20498;-78
2022/12/11 06:05:41;;;;;;;37.70;20.57;;;-0.50;99.90;;;;;;5063846;28;20214;-79
2022/12/11 06:08:08;;;;;;;35.57;20.37;;;-0.60;99.90;;;;;;5067233;28;20226;-79
2022/12/11 06:10:35;;;;;;;40.17;22.00;;;-0.60;99.90;;;;;;5065413;28;20210;-79
2022/12/11 06:13:02;;;;;;;36.30;20.07;;;-0.60;99.90;;;;;;5066370;28;20202;-79
2022/12/11 06:15:29;;;;;;;36.77;20.53;;;-0.60;99.90;;;;;;5060866;28;20198;-80
2022/12/11 06:17:57;;;;;;;36.80;19.57;;;-0.50;99.90;;;;;;5063774;28;20214;-79
2022/12/11 06:20:24;;;;;;;36.90;20.53;;;-0.50;99.90;;;;;;5073749;28;20209;-79
2022/12/11 06:22:51;;;;;;;35.40;19.70;;;-0.50;99.90;;;;;;5072612;28;20292;-78
2022/12/11 06:25:18;;;;;;;37.67;22.10;;;-0.50;99.90;;;;;;5068060;28;20206;-79
2022/12/11 06:27:44;;;;;;;35.83;20.10;;;-0.60;99.90;;;;;;5069059;28;20222;-79
2022/12/11 06:30:12;;;;;;;35.83;20.50;;;-0.50;99.90;;;;;;5067621;28;20195;-79
2022/12/11 06:32:39;;;;;;;38.37;21.00;;;-0.50;99.90;;;;;;5067967;28;20680;-79
2022/12/11 06:35:08;;;;;;;34.73;19.90;;;-0.60;99.90;;;;;;5068300;28;20204;-79
2022/12/11 06:37:35;;;;;;;36.73;20.67;;;-0.60;99.90;;;;;;5061344;28;20218;-79
2022/12/11 06:40:03;;;;;;;34.70;21.03;;;-0.50;99.90;;;;;;5060068;28;20203;-79
2022/12/11 06:42:31;;;;;;;36.63;20.83;;;-0.50;99.90;;;;;;5065699;28;20643;-79
2022/12/11 06:44:58;;;;;;;38.33;21.93;;;-0.60;99.90;;;;;;5071803;28;20573;-79
2022/12/11 06:47:26;;;;;;;35.47;20.63;;;-0.60;99.90;;;;;;5076229;28;20263;-79
2022/12/11 06:49:53;;;;;;;36.87;20.37;;;-0.40;99.90;;;;;;5072765;28;20234;-78
2022/12/11 06:52:22;;;;;;;33.00;19.27;;;-0.40;99.90;;;;;;5072418;28;20612;-79
2022/12/11 06:54:49;;;;;;;34.50;20.23;;;-0.40;99.90;;;;;;5060099;28;20465;-78
2022/12/11 06:57:16;;;;;;;36.27;20.43;;;-0.40;99.90;;;;;;5072076;28;20229;-78
2022/12/11 06:59:43;;;;;;;34.33;19.07;;;-0.40;99.90;;;;;;5062847;28;20588;-79
2022/12/11 07:02:12;;;;;;;35.07;19.80;;;-0.40;99.90;;;;;;5067742;28;20552;-78
2022/12/11 07:04:39;;;;;;;34.50;20.30;;;-0.40;99.90;;;;;;5065767;28;20212;-79
2022/12/11 07:07:05;;;;;;;34.77;20.40;;;-0.40;99.90;;;;;;5067371;28;20219;-79
2022/12/11 07:09:34;;;;;;;35.03;20.40;;;-0.40;99.90;;;;;;5074028;28;20218;-79
2022/12/11 07:12:02;;;;;;;37.37;21.70;;;-0.50;99.90;;;;;;5069281;28;20209;-80
2022/12/11 07:14:29;;;;;;;41.27;22.10;;;-0.40;99.90;;;;;;5071084;28;20206;-80
2022/12/11 07:16:56;;;;;;;36.97;20.97;;;-0.50;99.90;;;;;;5071115;28;20706;-80
2022/12/11 07:19:23;;;;;;;36.27;19.97;;;-0.50;99.90;;;;;;5066333;28;20233;-81
2022/12/11 07:21:50;;;;;;;34.77;20.30;;;-0.60;99.90;;;;;;5068085;28;20252;-80
2022/12/11 07:24:17;;;;;;;38.23;21.60;;;-0.50;99.90;;;;;;5071505;28;20286;-80
2022/12/11 07:26:45;;;;;;;38.20;22.83;;;-0.60;99.90;;;;;;5063083;28;20215;-80
2022/12/11 07:29:12;;;;;;;41.13;23.20;;;-0.60;99.90;;;;;;5060990;28;20226;-80
2022/12/11 07:31:39;;;;;;;39.40;22.20;;;-0.60;99.90;;;;;;5069962;28;20209;-80
2022/12/11 07:34:07;;;;;;;37.17;20.73;;;-0.60;99.90;;;;;;5070185;28;20199;-80
2022/12/11 07:36:34;;;;;;;37.73;21.43;;;-0.60;99.90;;;;;;5063853;28;20221;-80
2022/12/11 07:39:02;;;;;;;37.17;20.37;;;-0.50;99.90;;;;;;5069674;28;20554;-80
2022/12/11 07:41:30;;;;;;;40.57;21.70;;;-0.60;99.90;;;;;;5065062;28;20211;-81
2022/12/11 07:44:00;;;;;;;36.30;21.77;;;-0.60;99.90;;;;;;5075784;28;20214;-80
2022/12/11 07:46:29;;;;;;;39.43;22.80;;;-0.60;99.90;;;;;;5071467;28;20595;-81
2022/12/11 07:48:56;;;;;;;35.60;21.50;;;-0.50;99.90;;;;;;5068770;28;20343;-81
2022/12/11 07:51:26;;;;;;;36.23;20.67;;;-0.60;99.90;;;;;;5063027;28;20194;-81
2022/12/11 07:53:55;;;;;;;37.23;21.60;;;-0.60;99.90;;;;;;5059129;28;20571;-81
2022/12/11 07:56:22;;;;;;;40.93;21.03;;;-0.50;99.90;;;;;;5071103;28;20241;-81
2022/12/11 07:58:49;;;;;;;35.70;21.70;;;-0.50;99.90;;;;;;5072729;28;20209;-80
2022/12/11 08:01:19;;;;;;;38.37;22.10;;;-0.60;99.90;;;;;;5061309;28;20199;-80
2022/12/11 08:03:46;;;;;;;36.60;21.93;;;-0.60;99.90;;;;;;5066811;28;20206;-80
2022/12/11 08:06:13;;;;;;;37.57;22.53;;;-0.60;99.90;;;;;;5064988;28;20324;-81
2022/12/11 08:08:40;;;;;;;37.23;21.77;;;-0.60;99.90;;;;;;5073299;28;20682;-80
2022/12/11 08:11:10;;;;;;;35.47;21.57;;;-0.60;99.90;;;;;;5068018;28;20655;-80
2022/12/11 08:13:37;;;;;;;37.37;22.50;;;-0.60;99.90;;;;;;5067144;28;20203;-80
2022/12/11 08:16:04;;;;;;;35.50;21.73;;;-0.60;99.90;;;;;;5067754;28;20207;-79
2022/12/11 08:18:33;;;;;;;34.10;20.93;;;-0.60;99.90;;;;;;5070207;28;20199;-80
2022/12/11 08:21:04;;;;;;;37.97;22.83;;;-0.60;99.90;;;;;;5064126;28;20199;-80
2022/12/11 08:23:31;;;;;;;35.40;21.43;;;-0.60;99.90;;;;;;5068194;28;20676;-80
2022/12/11 08:25:58;;;;;;;36.03;21.83;;;-0.70;99.90;;;;;;5062140;28;20209;-80
2022/12/11 08:28:24;;;;;;;34.30;21.87;;;-0.60;99.90;;;;;;5065217;28;20202;-79
2022/12/11 08:30:51;;;;;;;35.63;22.23;;;-0.60;99.90;;;;;;5069603;28;20206;-80
2022/12/11 08:33:18;;;;;;;38.63;22.73;;;-0.60;99.90;;;;;;5069402;28;20298;-80
2022/12/11 08:35:46;;;;;;;36.73;23.13;;;-0.60;99.90;;;;;;5068518;28;20207;-79
2022/12/11 08:38:14;;;;;;;34.83;21.10;;;-0.60;99.90;;;;;;5066415;28;20280;-79
2022/12/11 08:40:41;;;;;;;34.77;21.40;;;-0.60;99.90;;;;;;5061877;28;20231;-79
2022/12/11 08:43:08;;;;;;;36.03;22.37;;;-0.60;99.90;;;;;;5059936;28;20282;-79
2022/12/11 08:45:35;;;;;;;36.17;21.83;;;-0.60;99.90;;;;;;5064162;28;20223;-79
2022/12/11 08:48:02;;;;;;;35.00;20.67;;;-0.50;99.90;;;;;;5059164;28;20232;-79
2022/12/11 08:50:28;;;;;;;35.17;23.03;;;-0.60;99.90;;;;;;5071401;28;20236;-79
2022/12/11 08:52:57;;;;;;;36.93;22.00;;;-0.60;99.90;;;;;;5065833;28;20206;-79
2022/12/11 08:55:24;;;;;;;36.60;22.27;;;-0.60;99.90;;;;;;5062274;28;20237;-79
2022/12/11 08:57:51;;;;;;;36.40;22.67;;;-0.60;99.90;;;;;;5069866;28;20222;-79
2022/12/11 09:00:18;;;;;;;36.63;21.60;;;-0.50;99.90;;;;;;5072671;28;20201;-79
2022/12/11 09:02:45;;;;;;;35.07;22.03;;;-0.60;99.90;;;;;;5062669;28;20244;-79
2022/12/11 09:05:11;;;;;;;33.93;21.67;;;-0.60;99.90;;;;;;5060071;28;20210;-79
2022/12/11 09:07:38;;;;;;;39.70;22.00;;;-0.60;99.90;;;;;;5067169;28;20237;-79
2022/12/11 09:10:08;;;;;;;36.27;20.57;;;-0.70;99.90;;;;;;5062565;28;20311;-79
2022/12/11 09:12:36;;;;;;;35.53;21.40;;;-0.60;99.90;;;;;;5062285;28;20209;-79
2022/12/11 09:15:03;;;;;;;36.87;22.33;;;-0.60;99.90;;;;;;5066939;28;20651;-80
2022/12/11 09:17:30;;;;;;;36.23;21.77;;;-0.50;99.90;;;;;;5069423;28;20226;-79
2022/12/11 09:19:57;;;;;;;36.60;20.43;;;-0.60;99.90;;;;;;5073235;28;20198;-79
2022/12/11 09:22:24;;;;;;;37.97;22.07;;;-0.60;99.90;;;;;;5062190;28;20207;-79
2022/12/11 09:24:51;;;;;;;34.17;22.03;;;-0.60;99.90;;;;;;5059245;28;20285;-79
2022/12/11 09:27:20;;;;;;;36.73;22.40;;;-0.50;99.90;;;;;;5067515;28;20225;-79
2022/12/11 09:29:46;;;;;;;34.73;20.83;;;-0.60;99.90;;;;;;5065443;28;20222;-79
2022/12/11 09:32:13;;;;;;;36.83;21.83;;;-0.50;99.90;;;;;;5060122;28;20206;-79
2022/12/11 09:34:40;;;;;;;36.33;20.50;;;-0.60;99.90;;;;;;5060382;28;20575;-79
2022/12/11 09:37:07;;;;;;;33.23;20.17;;;-0.60;99.90;;;;;;5064120;28;20222;-79
2022/12/11 09:39:34;;;;;;;37.80;20.90;;;-0.60;99.90;;;;;;5071085;28;20199;-79
2022/12/11 09:42:05;;;;;;;37.03;20.63;;;-0.60;99.90;;;;;;5060157;28;20195;-79
2022/12/11 09:44:39;;;;;;;37.17;21.77;;;-0.50;99.90;;;;;;5066953;28;20203;-79
2022/12/11 09:47:19;;;;;;;36.30;21.00;;;-0.50;99.90;;;;;;5069215;28;20217;-79
2022/12/11 09:49:49;;;;;;;36.37;21.00;;;-0.50;99.90;;;;;;5059615;28;20590;-79
2022/12/11 09:52:23;;;;;;;39.40;21.40;;;-0.60;99.90;;;;;;5068317;28;20591;-79
2022/12/11 09:54:54;;;;;;;35.90;21.27;;;-0.50;99.90;;;;;;5068091;28;20195;-79
2022/12/11 09:57:32;;;;;;;33.83;20.70;;;-0.40;99.90;;;;;;5075616;28;20245;-79
2022/12/11 10:00:17;;;;;;;34.87;20.70;;;-0.50;99.90;;;;;;5062299;28;20270;-79
2022/12/11 10:03:09;;;;;;;33.87;21.00;;;-0.40;99.90;;;;;;5068769;28;20202;-79
2022/12/11 10:05:45;;;;;;;33.80;19.80;;;-0.30;99.90;;;;;;5067642;28;20244;-79
2022/12/11 10:08:19;;;;;;;34.73;20.47;;;-0.40;99.90;;;;;;5072545;28;20709;-79
2022/12/11 10:10:54;;;;;;;33.77;20.70;;;-0.40;99.90;;;;;;5068287;28;20710;-79
2022/12/11 10:13:29;;;;;;;33.77;20.93;;;-0.40;99.90;;;;;;5070709;28;20699;-79
2022/12/11 10:16:03;;;;;;;33.90;20.00;;;-0.30;99.90;;;;;;5062144;28;20285;-79
2022/12/11 10:18:32;;;;;;;34.53;20.10;;;-0.40;99.90;;;;;;5067107;28;20211;-78
2022/12/11 10:21:02;;;;;;;33.83;20.23;;;-0.40;99.90;;;;;;5072005;28;20203;-79
2022/12/11 10:23:34;;;;;;;33.97;19.37;;;-0.30;99.90;;;;;;5074076;28;20215;-78
2022/12/11 10:26:06;;;;;;;34.87;20.47;;;-0.30;99.90;;;;;;5066707;28;20230;-79
2022/12/11 10:28:34;;;;;;;34.40;20.50;;;-0.20;99.90;;;;;;5065514;28;20206;-79
2022/12/11 10:31:11;;;;;;;33.80;19.67;;;-0.20;99.90;;;;;;5062892;28;20252;-79
2022/12/11 10:33:43;;;;;;;38.67;21.33;;;-0.30;99.90;;;;;;5063240;28;20301;-79
2022/12/11 10:36:15;;;;;;;36.23;20.97;;;-0.40;99.90;;;;;;5071643;28;20289;-79
2022/12/11 10:38:44;;;;;;;33.60;20.23;;;-0.20;99.90;;;;;;5072545;28;20202;-79
2022/12/11 10:41:13;;;;;;;33.47;19.70;;;-0.20;99.90;;;;;;5072116;28;20226;-78
2022/12/11 10:43:42;;;;;;;32.67;17.93;;;-0.20;99.90;;;;;;5064153;28;20312;-78
2022/12/11 10:46:16;;;;;;;35.00;19.53;;;-0.20;99.90;;;;;;5073469;28;20686;-78
2022/12/11 10:48:47;;;;;;;30.17;17.97;;;-0.10;99.90;;;;;;5074965;28;20285;-78
2022/12/11 10:51:14;;;;;;;31.47;18.73;;;0.00;99.90;;;;;;5065957;28;20199;-78
2022/12/11 10:53:43;;;;;;;31.00;17.93;;;0.00;99.90;;;;;;5065942;28;20705;-79
2022/12/11 10:56:11;;;;;;;30.07;18.10;;;0.00;99.90;;;;;;5061157;28;20199;-79
2022/12/11 10:58:48;;;;;;;30.77;16.90;;;0.00;99.90;;;;;;5067340;28;20573;-81
2022/12/11 11:01:21;;;;;;;31.07;16.03;;;-0.10;99.90;;;;;;5067302;28;20203;-80
2022/12/11 11:03:58;;;;;;;32.73;18.17;;;-0.10;99.90;;;;;;5068615;28;20267;-80
2022/12/11 11:06:26;;;;;;;31.10;17.70;;;0.20;99.90;;;;;;5076545;28;20222;-80
2022/12/11 11:08:54;;;;;;;31.23;18.53;;;0.20;99.90;;;;;;5076888;28;20671;-80
2022/12/11 11:11:27;;;;;;;27.47;17.13;;;0.40;99.90;;;;;;5063538;28;20194;-79
2022/12/11 11:14:06;;;;;;;30.93;16.13;;;0.30;99.90;;;;;;5059165;28;20680;-79
2022/12/11 11:16:37;;;;;;;29.33;16.43;;;0.30;99.90;;;;;;5069226;28;20309;-79
2022/12/11 11:19:04;;;;;;;31.70;16.33;;;0.20;99.90;;;;;;5071739;28;20294;-79
2022/12/11 11:21:34;;;;;;;32.10;17.97;;;0.30;99.90;;;;;;5066892;28;20206;-79
2022/12/11 11:24:00;;;;;;;33.37;19.17;;;0.20;99.90;;;;;;5072430;28;20564;-79
2022/12/11 11:26:32;;;;;;;34.43;19.67;;;0.30;99.90;;;;;;5062290;28;20225;-79
2022/12/11 11:28:58;;;;;;;31.07;18.53;;;0.30;99.90;;;;;;5064147;28;20895;-79
2022/12/11 11:31:32;;;;;;;32.43;19.77;;;0.40;99.90;;;;;;5069407;28;20202;-79
2022/12/11 11:34:03;;;;;;;33.13;16.53;;;0.40;99.90;;;;;;5065508;28;20221;-79
2022/12/11 11:36:32;;;;;;;30.33;17.03;;;0.30;99.90;;;;;;5068131;28;20355;-79
2022/12/11 11:39:13;;;;;;;31.63;15.87;;;0.30;99.90;;;;;;5070212;28;20513;-79
2022/12/11 11:41:46;;;;;;;33.47;16.70;;;0.10;99.90;;;;;;5063734;28;20207;-80
2022/12/11 11:44:18;;;;;;;31.90;17.17;;;0.10;99.90;;;;;;5071874;28;20203;-80
2022/12/11 11:46:49;;;;;;;33.13;17.37;;;0.10;99.90;;;;;;5067463;28;20690;-79
2022/12/11 11:49:23;;;;;;;28.23;15.33;;;0.20;99.90;;;;;;5067279;28;20210;-79
2022/12/11 11:51:55;;;;;;;30.00;18.00;;;0.40;99.90;;;;;;5064276;28;20228;-79
2022/12/11 11:54:31;;;;;;;30.27;16.53;;;0.40;99.90;;;;;;5071956;28;20300;-83
2022/12/11 11:57:01;;;;;;;30.50;15.47;;;0.60;99.90;;;;;;5069634;28;20557;-79
2022/12/11 11:59:32;;;;;;;32.70;15.70;;;1.00;99.90;;;;;;5067952;28;20194;-79
2022/12/11 12:01:59;;;;;;;30.93;17.30;;;1.40;99.90;;;;;;5068776;28;20195;-82
2022/12/11 12:04:32;;;;;;;30.13;16.73;;;1.60;99.90;;;;;;5060901;28;20750;-81
2022/12/11 12:07:13;;;;;;;31.03;17.03;;;1.70;99.90;;;;;;5068530;28;20226;-81
2022/12/11 12:09:49;;;;;;;30.93;15.83;;;1.80;99.90;;;;;;5063514;28;20215;-80
2022/12/11 12:12:22;;;;;;;28.00;15.37;;;1.30;99.90;;;;;;5067278;28;20280;-79
2022/12/11 12:15:00;;;;;;;29.63;15.40;;;1.10;99.90;;;;;;5068431;28;20199;-79
2022/12/11 12:17:37;;;;;;;30.93;17.50;;;1.00;99.90;;;;;;5058614;28;20234;-80
2022/12/11 12:20:17;;;;;;;28.30;14.03;;;0.90;99.90;;;;;;5065479;28;20685;-79
2022/12/11 12:22:57;;;;;;;29.13;14.57;;;1.10;99.90;;;;;;5066970;28;20206;-80
2022/12/11 12:25:28;;;;;;;24.77;14.23;;;1.30;99.90;;;;;;5081928;28;20212;-80
2022/12/11 12:28:03;;;;;;;28.20;13.63;;;1.30;99.90;;;;;;5074430;28;20228;-80
2022/12/11 12:30:37;;;;;;;28.40;14.40;;;1.30;99.90;;;;;;5069607;28;20237;-81
2022/12/11 12:33:20;;;;;;;25.80;13.80;;;1.20;99.90;;;;;;5072534;28;20577;-81
2022/12/11 12:35:58;;;;;;;28.10;14.87;;;0.70;99.90;;;;;;5078321;28;20203;-81
2022/12/11 12:38:36;;;;;;;26.27;14.23;;;0.80;99.90;;;;;;5072877;28;20262;-81
2022/12/11 12:41:12;;;;;;;32.17;15.57;;;1.20;99.90;;;;;;5072833;28;20285;-80
2022/12/11 12:44:00;;;;;;;27.77;17.07;;;1.70;99.90;;;;;;5073973;28;20206;-80
2022/12/11 12:46:39;;;;;;;28.77;14.57;;;1.60;99.90;;;;;;5059997;28;20241;-80
2022/12/11 12:49:12;;;;;;;25.87;13.33;;;0.70;99.90;;;;;;5054156;28;20217;-80
2022/12/11 12:51:42;;;;;;;26.23;11.83;;;0.50;99.90;;;;;;5054680;28;20222;-80
2022/12/11 12:54:13;;;;;;;24.17;11.07;;;0.70;99.90;;;;;;5057178;28;20685;-80